Pagina principale
METAR-TAF:

METAR-TAF

Aeroporti :

Aeroporto del Lussemburgo

Lussemburgo, Lussemburgo

latitudine: 49-37N, longitudine: 006-13E, altezza: 376 m

Osservazione

Il bollettino è stato emesso 36 minuti fa, alle 12:50 UTC
Vento 7 kt da est, variando fra nord-est e sud/sud-est
Temperature 33°C
Umidità 26%
Pressione 1020 hPa
Visibilità 10 km o più
nessuna nube inferiore a 1500 m e nessun cumulonembo

METAR: ELLX 231250Z 10007KT 050V150 CAVOK 33/11 Q1020 NOSIG

Ora: 15:26 (13:26 UTC)

Previsione

Il bollettino è stato emesso 2 ore e 26 minuti fa, alle 11:00 UTC
Previsione valida dal 23 alle 12 UTC al 24 alle 18 UTC
Vento 7 kt da est
Visibilità 10 km o più
nessuna nube inferiore a 1500 m e nessun cumulonembo

TAF: ELLX 231100Z 2312/2418 09007KT CAVOK

Osservazioni e previsioni meteorologiche di più di 4000 aeroporti (messaggi METAR e TAF).

Le stazioni disponibili sono rappresentate dai dischi gialli e rossi sulla carta.

Puntare il mouse per vedere il nome della stazione.

Clicca sopra per visualizzare le osservazioni e previsioni meteorologiche.

Per cambiare la mappa : fare clic sui pulsanti verdi con una croce nera per ingrandire, il pulsante verde con un trattino per diminuire, o sulla freccia verde per le mappe adiacenti.


METAR-TAF: